createdAt,value
2019-02-21T00:03:10.821Z,9.76
2019-02-21T00:08:18.501Z,9.05
2019-02-21T00:13:26.113Z,11.01
2019-02-21T00:18:33.837Z,10.76
2019-02-21T00:23:41.453Z,9.61
2019-02-21T00:28:49.274Z,10.47
2019-02-21T00:33:59.178Z,12.54
2019-02-21T00:39:06.876Z,11.62
2019-02-21T00:44:14.603Z,12.08
2019-02-21T00:49:22.514Z,13.94
2019-02-21T00:54:30.193Z,14.44
2019-02-21T00:59:37.851Z,13.17
2019-02-21T01:04:45.642Z,13.61
2019-02-21T01:09:53.395Z,13.60
2019-02-21T01:15:01.014Z,14.64
2019-02-21T01:20:08.823Z,15.08
2019-02-21T01:25:16.650Z,14.23
2019-02-21T01:30:24.294Z,13.22
2019-02-21T01:35:31.877Z,14.49
2019-02-21T01:40:39.730Z,14.40
2019-02-21T01:45:48.317Z,14.23
2019-02-21T01:50:56.177Z,15.81
2019-02-21T01:56:03.993Z,14.50
2019-02-21T02:01:11.720Z,12.53
2019-02-21T02:06:19.384Z,13.80
2019-02-21T02:11:26.866Z,13.42
2019-02-21T02:16:34.578Z,27.51
2019-02-21T02:21:42.212Z,23.44
2019-02-21T02:26:49.942Z,13.25
2019-02-21T02:31:57.778Z,12.67
2019-02-21T02:37:05.498Z,14.15
2019-02-21T02:42:13.154Z,14.53
2019-02-21T02:47:20.811Z,15.94
2019-02-21T02:52:28.498Z,14.40
2019-02-21T02:57:36.963Z,13.63
2019-02-21T03:02:44.790Z,13.86
2019-02-21T03:07:52.478Z,13.73
2019-02-21T03:13:00.216Z,13.02
2019-02-21T03:18:08.009Z,13.32
2019-02-21T03:23:15.690Z,14.67
2019-02-21T03:28:23.281Z,13.25
2019-02-21T03:33:31.230Z,14.81
2019-02-21T03:38:38.975Z,12.83
2019-02-21T03:43:46.721Z,13.24
2019-02-21T03:48:55.257Z,13.68
2019-02-21T03:54:02.957Z,24.09
2019-02-21T03:59:10.678Z,13.84
2019-02-21T04:04:18.470Z,13.59
2019-02-21T04:09:26.119Z,13.93
2019-02-21T04:14:33.710Z,25.91
2019-02-21T04:19:41.414Z,14.28
2019-02-21T04:24:49.005Z,16.20
2019-02-21T04:29:56.770Z,15.09
2019-02-21T04:35:04.406Z,15.73
2019-02-21T04:40:12.124Z,15.59
2019-02-21T04:45:19.836Z,16.88
2019-02-21T04:50:27.711Z,16.87
2019-02-21T04:55:35.438Z,16.25
2019-02-21T05:00:43.053Z,16.19
2019-02-21T05:05:50.722Z,16.98
2019-02-21T05:10:58.535Z,17.15
2019-02-21T05:16:06.292Z,16.57
2019-02-21T05:21:14.060Z,16.77
2019-02-21T05:26:21.772Z,16.00
2019-02-21T05:31:29.326Z,17.32
2019-02-21T05:36:36.918Z,16.79
2019-02-21T05:41:44.770Z,16.24
2019-02-21T05:46:52.652Z,16.45
2019-02-21T05:52:00.254Z,16.70
2019-02-21T05:57:08.098Z,15.95
2019-02-21T06:02:15.825Z,17.40
2019-02-21T06:07:23.466Z,17.29
2019-02-21T06:12:33.938Z,16.99
2019-02-21T06:17:38.365Z,16.39
2019-02-21T06:22:46.067Z,16.90
2019-02-21T06:27:53.722Z,17.70
2019-02-21T06:33:04.921Z,31.61
2019-02-21T06:38:08.581Z,16.96
2019-02-21T06:43:16.187Z,16.44
2019-02-21T06:48:23.844Z,17.08
2019-02-21T06:53:31.637Z,28.93
2019-02-21T06:58:39.402Z,17.25
2019-02-21T07:03:47.421Z,17.74
2019-02-21T07:08:55.061Z,19.16
2019-02-21T07:14:02.699Z,19.04
2019-02-21T07:19:10.962Z,17.04
2019-02-21T07:24:18.189Z,17.10
2019-02-21T07:29:25.538Z,18.61
2019-02-21T07:34:33.138Z,20.22
2019-02-21T07:39:40.778Z,18.19
2019-02-21T07:44:48.595Z,19.64
2019-02-21T07:49:56.293Z,18.38
2019-02-21T07:55:04.078Z,18.55
2019-02-21T08:00:11.872Z,17.99
2019-02-21T08:05:19.486Z,19.46
2019-02-21T08:10:33.664Z,17.78
2019-02-21T08:15:34.385Z,19.15
2019-02-21T08:20:42.115Z,18.85
2019-02-21T08:25:49.827Z,21.20
2019-02-21T08:30:58.200Z,19.39
2019-02-21T08:36:04.806Z,19.94
2019-02-21T08:41:14.624Z,19.72
2019-02-21T08:46:20.560Z,20.36
2019-02-21T08:51:28.321Z,22.43
2019-02-21T08:56:37.106Z,20.42
2019-02-21T09:01:44.769Z,19.69
2019-02-21T09:06:52.441Z,21.43
2019-02-21T09:12:00.218Z,22.22
2019-02-21T09:17:07.882Z,19.24
2019-02-21T09:22:15.511Z,20.83
2019-02-21T09:27:23.292Z,17.58
2019-02-21T09:32:30.946Z,18.01
2019-02-21T09:37:38.637Z,19.00
2019-02-21T09:42:46.309Z,16.26
2019-02-21T09:47:54.065Z,16.18
2019-02-21T09:53:01.725Z,17.57
2019-02-21T09:58:09.295Z,18.16
2019-02-21T10:03:17.145Z,16.21
2019-02-21T10:08:24.734Z,16.50
2019-02-21T10:13:32.722Z,17.17
2019-02-21T10:18:40.366Z,16.26
2019-02-21T10:23:48.469Z,24.25
2019-02-21T10:28:56.070Z,16.10
2019-02-21T10:34:03.868Z,14.82
2019-02-21T10:39:11.450Z,17.69
2019-02-21T10:44:19.062Z,16.09
2019-02-21T10:49:26.666Z,18.35
2019-02-21T10:54:34.523Z,20.28
2019-02-21T10:59:46.678Z,17.62
2019-02-21T11:04:54.950Z,18.07
2019-02-21T11:09:56.675Z,18.45
2019-02-21T11:15:04.278Z,19.30
2019-02-21T11:20:11.859Z,15.70
2019-02-21T11:25:19.562Z,16.40
2019-02-21T11:30:28.183Z,17.11
2019-02-21T11:35:35.962Z,20.86
2019-02-21T11:40:43.794Z,19.68
2019-02-21T11:45:53.918Z,18.59
2019-02-21T11:50:58.687Z,16.62
2019-02-21T11:56:06.322Z,19.53
2019-02-21T12:01:14.113Z,17.68
2019-02-21T12:06:21.717Z,18.34
2019-02-21T12:11:29.528Z,18.97
2019-02-21T12:16:37.190Z,18.66
2019-02-21T12:21:44.847Z,18.58
2019-02-21T12:26:52.513Z,18.17
2019-02-21T12:32:00.686Z,18.92
2019-02-21T12:37:08.366Z,17.58
2019-02-21T12:42:16.281Z,19.45
2019-02-21T12:47:23.886Z,22.23
2019-02-21T12:52:31.584Z,19.48
2019-02-21T12:57:39.206Z,21.96
2019-02-21T13:02:46.863Z,21.20
2019-02-21T13:07:54.506Z,19.92
2019-02-21T13:13:02.214Z,19.73
2019-02-21T13:18:15.922Z,20.39
2019-02-21T13:23:17.076Z,19.87
2019-02-21T13:28:24.857Z,22.42
2019-02-21T13:33:32.519Z,19.80
2019-02-21T13:38:40.150Z,20.39
2019-02-21T13:43:47.926Z,19.73
2019-02-21T13:48:55.785Z,19.61
2019-02-21T13:54:03.553Z,19.05
2019-02-21T13:59:11.290Z,21.37
2019-02-21T14:04:19.062Z,20.87
2019-02-21T14:09:26.785Z,22.14
2019-02-21T14:14:34.486Z,22.31
2019-02-21T14:19:42.297Z,20.98
2019-02-21T14:24:51.024Z,19.61
2019-02-21T14:29:58.646Z,20.50
2019-02-21T14:35:06.612Z,19.20
2019-02-21T14:40:14.266Z,29.24
2019-02-21T14:45:21.942Z,21.75
2019-02-21T14:50:29.587Z,24.86
2019-02-21T14:55:37.229Z,20.87
2019-02-21T15:00:45.045Z,19.65
2019-02-21T15:05:52.847Z,19.12
2019-02-21T15:11:00.411Z,18.74
2019-02-21T15:16:08.097Z,18.17
2019-02-21T15:21:15.855Z,17.98
2019-02-21T15:26:24.607Z,17.56
2019-02-21T15:31:32.230Z,16.85
2019-02-21T15:36:40.129Z,17.64
2019-02-21T15:41:47.793Z,17.33
2019-02-21T15:46:55.970Z,17.53
2019-02-21T15:52:03.580Z,17.91
2019-02-21T15:57:13.095Z,16.69
2019-02-21T16:02:18.599Z,17.66
2019-02-21T16:07:26.391Z,15.64
2019-02-21T16:12:34.482Z,17.11
2019-02-21T16:17:41.951Z,14.54
2019-02-21T16:22:49.746Z,15.27
2019-02-21T16:27:57.297Z,14.30
2019-02-21T16:33:04.908Z,13.93
2019-02-21T16:43:20.709Z,13.37
2019-02-21T16:48:28.519Z,13.19
2019-02-21T16:53:36.156Z,13.12
2019-02-21T16:58:43.978Z,11.59
2019-02-21T17:03:51.618Z,12.91
2019-02-21T17:08:59.515Z,13.29
2019-02-21T17:14:07.283Z,16.13
2019-02-21T17:19:15.188Z,15.23
2019-02-21T17:24:22.834Z,13.70
2019-02-21T17:29:30.534Z,13.56
2019-02-21T17:34:38.085Z,12.85
2019-02-21T17:39:45.908Z,13.87
2019-02-21T17:44:53.482Z,13.01
2019-02-21T17:50:01.200Z,15.46
2019-02-21T17:55:08.968Z,15.87
2019-02-21T18:00:17.318Z,15.66
2019-02-21T18:05:24.178Z,14.80
2019-02-21T18:10:31.826Z,14.71
2019-02-21T18:15:39.493Z,15.66
2019-02-21T18:20:47.221Z,14.78
2019-02-21T18:25:54.933Z,14.55
2019-02-21T18:31:02.782Z,13.73
2019-02-21T18:36:10.486Z,15.40
2019-02-21T18:41:18.242Z,15.11
2019-02-21T18:46:25.918Z,15.26
2019-02-21T18:51:33.633Z,15.55
2019-02-21T18:56:41.399Z,16.60
2019-02-21T19:01:49.021Z,16.68
2019-02-21T19:06:56.734Z,16.53
2019-02-21T19:12:04.373Z,16.13
2019-02-21T19:17:12.174Z,16.75
2019-02-21T19:22:19.913Z,15.72
2019-02-21T19:27:36.932Z,17.82
2019-02-21T19:32:34.965Z,17.43
2019-02-21T19:37:42.612Z,14.68
2019-02-21T19:42:50.403Z,13.52
2019-02-21T19:47:58.137Z,13.16
2019-02-21T19:53:06.022Z,13.24
2019-02-21T19:58:13.677Z,12.97
2019-02-21T20:03:21.638Z,12.47
2019-02-21T20:08:29.287Z,12.03
2019-02-21T20:13:37.237Z,11.98
2019-02-21T20:18:45.042Z,21.42
2019-02-21T20:23:52.823Z,12.25
2019-02-21T20:29:00.609Z,13.79
2019-02-21T20:34:08.345Z,26.85
2019-02-21T20:39:16.375Z,17.44
2019-02-21T20:44:24.321Z,14.84
2019-02-21T20:49:32.898Z,16.05
2019-02-21T20:54:40.772Z,18.99
2019-02-21T20:59:48.353Z,17.96
2019-02-21T21:04:56.058Z,22.68
2019-02-21T21:10:03.704Z,21.80
2019-02-21T21:15:12.171Z,21.67
2019-02-21T21:20:19.842Z,20.71
2019-02-21T21:25:27.640Z,23.54
2019-02-21T21:30:35.390Z,23.34
2019-02-21T21:35:43.145Z,22.84
2019-02-21T21:40:50.857Z,27.44
2019-02-21T21:45:58.497Z,28.17
2019-02-21T21:51:06.218Z,24.96
2019-02-21T21:56:14.064Z,25.90
2019-02-21T22:01:21.674Z,26.56
2019-02-21T22:06:30.206Z,26.16
2019-02-21T22:11:37.838Z,29.40
2019-02-21T22:16:45.702Z,31.14
2019-02-21T22:21:53.457Z,28.10
2019-02-21T22:27:02.073Z,27.63
2019-02-21T22:32:09.870Z,50.66
2019-02-21T22:37:17.610Z,30.25
2019-02-21T22:42:25.182Z,54.71
2019-02-21T22:47:33.025Z,30.30
2019-02-21T22:52:40.800Z,25.43
2019-02-21T22:57:48.443Z,28.09
2019-02-21T23:02:56.044Z,27.78
2019-02-21T23:08:03.729Z,26.18
2019-02-21T23:13:11.497Z,29.77
2019-02-21T23:18:19.470Z,26.75
2019-02-21T23:23:27.179Z,29.47
2019-02-21T23:28:34.846Z,29.12
2019-02-21T23:33:42.553Z,27.24
2019-02-21T23:38:50.338Z,27.88
2019-02-21T23:43:58.125Z,33.68
2019-02-21T23:49:05.798Z,27.87
2019-02-21T23:54:13.491Z,27.42
2019-02-21T23:59:21.242Z,31.32
